createdAt,value
2022-12-15T00:02:22.793Z,99379.31
2022-12-15T00:05:09.538Z,99385.25
2022-12-15T00:07:54.723Z,99389.44
2022-12-15T00:10:39.922Z,99392.88
2022-12-15T00:13:29.280Z,99405.59
2022-12-15T00:16:14.876Z,99397.97
2022-12-15T00:19:00.436Z,99398.81
2022-12-15T00:21:47.474Z,99397.97
2022-12-15T00:24:32.573Z,99404.75
2022-12-15T00:27:17.905Z,99394.63
2022-12-15T00:30:03.402Z,99392.03
2022-12-15T00:32:48.878Z,99393.78
2022-12-15T00:35:34.329Z,99404.81
2022-12-15T00:38:26.634Z,99403.97
2022-12-15T00:40:59.032Z,99416.66
2022-12-15T00:43:27.350Z,99425.97
2022-12-15T00:46:12.814Z,99435.31
2022-12-15T00:48:40.631Z,99439.56
2022-12-15T00:51:08.097Z,99453.09
2022-12-15T00:53:55.216Z,99448.03
2022-12-15T00:56:40.772Z,99448.00
2022-12-15T00:59:26.236Z,99441.22
2022-12-15T01:02:11.449Z,99428.50
2022-12-15T01:04:57.193Z,99417.47
2022-12-15T01:07:42.373Z,99421.69
2022-12-15T01:10:29.579Z,99432.75
2022-12-15T01:13:14.876Z,99437.84
2022-12-15T01:16:00.289Z,99442.91
2022-12-15T01:18:49.483Z,99441.19
2022-12-15T01:21:17.541Z,99447.97
2022-12-15T01:23:45.232Z,99456.47
2022-12-15T01:26:14.344Z,99459.03
2022-12-15T01:28:42.079Z,99461.56
2022-12-15T01:31:13.178Z,99466.63
2022-12-15T01:33:42.795Z,99464.94
2022-12-15T01:36:11.634Z,99464.09
2022-12-15T01:38:39.371Z,99478.47
2022-12-15T01:41:10.322Z,99470.00
2022-12-15T01:43:41.928Z,99478.50
2022-12-15T01:46:11.693Z,99479.34
2022-12-15T01:48:43.041Z,99474.25
2022-12-15T01:51:15.926Z,99474.25
2022-12-15T01:53:50.211Z,99480.19
2022-12-15T01:56:20.142Z,99481.03
2022-12-15T01:58:51.382Z,99484.44
2022-12-15T02:01:19.291Z,99484.41
2022-12-15T02:03:49.062Z,99492.91
2022-12-15T02:06:17.942Z,99486.13
2022-12-15T02:08:49.180Z,99492.91
2022-12-15T02:11:39.814Z,99498.88
2022-12-15T02:14:10.767Z,99492.91
2022-12-15T02:16:50.401Z,99483.59
2022-12-15T02:19:42.250Z,99489.53
2022-12-15T02:22:26.933Z,99489.53
2022-12-15T02:25:30.454Z,99490.41
2022-12-15T02:28:03.810Z,99496.34
2022-12-15T02:30:44.241Z,99494.66
2022-12-15T02:33:18.381Z,99487.84
2022-12-15T02:35:57.838Z,99487.88
2022-12-15T02:38:34.726Z,99484.47
2022-12-15T02:41:04.633Z,99488.72
2022-12-15T02:43:38.761Z,99499.72
2022-12-15T02:46:20.786Z,99492.94
2022-12-15T02:49:00.763Z,99493.78
2022-12-15T02:51:45.099Z,99504.78
2022-12-15T02:54:29.650Z,99508.16
2022-12-15T02:57:06.134Z,99513.25
2022-12-15T02:59:42.980Z,99520.00
2022-12-15T03:02:14.828Z,99523.38
2022-12-15T03:04:45.407Z,99532.66
2022-12-15T03:07:15.280Z,99530.09
2022-12-15T03:09:43.229Z,99525.03
2022-12-15T03:12:11.519Z,99525.88
2022-12-15T03:14:39.276Z,99536.84
2022-12-15T03:17:07.481Z,99536.81
2022-12-15T03:19:36.659Z,99531.72
2022-12-15T03:22:04.471Z,99541.00
2022-12-15T03:24:32.193Z,99546.03
2022-12-15T03:26:59.929Z,99550.28
2022-12-15T03:29:27.563Z,99556.97
2022-12-15T03:31:55.242Z,99567.94
2022-12-15T03:34:23.526Z,99568.78
2022-12-15T03:36:52.608Z,99572.13
2022-12-15T03:39:20.362Z,99572.09
2022-12-15T03:41:47.983Z,99574.59
2022-12-15T03:44:15.864Z,99581.38
2022-12-15T03:46:43.529Z,99583.88
2022-12-15T03:49:11.362Z,99586.47
2022-12-15T03:51:39.467Z,99589.84
2022-12-15T03:54:08.791Z,99582.25
2022-12-15T03:56:36.496Z,99583.88
2022-12-15T03:59:04.189Z,99575.38
2022-12-15T04:01:33.621Z,99578.69
2022-12-15T04:04:02.281Z,99584.59
2022-12-15T04:06:30.717Z,99585.47
2022-12-15T04:08:58.377Z,99589.69
2022-12-15T04:11:27.542Z,99597.34
2022-12-15T04:13:55.273Z,99599.06
2022-12-15T04:16:22.996Z,99603.34
2022-12-15T04:19:10.898Z,99598.25
2022-12-15T04:21:37.557Z,99599.97
2022-12-15T04:24:23.715Z,99604.22
2022-12-15T04:27:10.757Z,99604.25
2022-12-15T04:29:55.991Z,99589.88
2022-12-15T04:32:41.985Z,99586.50
2022-12-15T04:35:29.045Z,99587.34
2022-12-15T04:38:15.194Z,99591.53
2022-12-15T04:41:00.377Z,99595.72
2022-12-15T04:43:47.531Z,99594.00
2022-12-15T04:46:32.743Z,99593.91
2022-12-15T04:49:18.301Z,99596.44
2022-12-15T04:52:03.514Z,99603.25
2022-12-15T04:54:49.084Z,99606.69
2022-12-15T04:57:34.445Z,99598.28
2022-12-15T05:00:21.120Z,99589.94
2022-12-15T05:03:06.757Z,99590.81
2022-12-15T05:05:52.032Z,99595.13
2022-12-15T05:08:37.124Z,99585.84
2022-12-15T05:11:22.251Z,99587.56
2022-12-15T05:14:07.428Z,99593.47
2022-12-15T05:16:54.231Z,99591.03
2022-12-15T05:19:39.761Z,99601.19
2022-12-15T05:22:25.158Z,99592.66
2022-12-15T05:25:10.485Z,99593.47
2022-12-15T05:27:55.602Z,99596.88
2022-12-15T05:30:41.110Z,99601.09
2022-12-15T05:33:10.102Z,99601.03
2022-12-15T05:35:37.915Z,99611.97
2022-12-15T05:38:06.323Z,99609.41
2022-12-15T05:40:34.074Z,99623.69
2022-12-15T05:43:02.189Z,99621.94
2022-12-15T05:45:29.902Z,99626.03
2022-12-15T05:47:57.863Z,99632.75
2022-12-15T05:50:26.851Z,99641.16
2022-12-15T05:52:55.702Z,99646.22
2022-12-15T05:55:23.476Z,99647.91
2022-12-15T05:57:54.923Z,99647.09
2022-12-15T06:00:22.978Z,99653.81
2022-12-15T06:02:51.034Z,99669.00
2022-12-15T06:05:19.021Z,99670.63
2022-12-15T06:07:48.062Z,99670.63
2022-12-15T06:10:15.972Z,99668.16
2022-12-15T06:12:43.926Z,99671.63
2022-12-15T06:15:12.026Z,99671.53
2022-12-15T06:17:39.729Z,99661.28
2022-12-15T06:20:08.534Z,99658.75
2022-12-15T06:22:36.683Z,99668.00
2022-12-15T06:25:07.056Z,99675.59
2022-12-15T06:27:36.837Z,99676.38
2022-12-15T06:30:05.403Z,99670.53
2022-12-15T06:32:35.692Z,99660.44
2022-12-15T06:35:03.462Z,99657.97
2022-12-15T06:37:31.109Z,99655.47
2022-12-15T06:39:58.771Z,99662.16
2022-12-15T06:42:27.945Z,99657.94
2022-12-15T06:44:55.769Z,99657.91
2022-12-15T06:47:23.495Z,99661.25
2022-12-15T06:49:51.131Z,99672.25
2022-12-15T06:52:18.786Z,99676.69
2022-12-15T06:54:46.476Z,99666.44
2022-12-15T06:57:14.192Z,99671.63
2022-12-15T06:59:43.568Z,99672.38
2022-12-15T07:02:19.247Z,99687.50
2022-12-15T07:04:50.742Z,99690.91
2022-12-15T07:07:18.843Z,99690.31
2022-12-15T07:09:46.684Z,99701.06
2022-12-15T07:12:14.536Z,99697.66
2022-12-15T07:14:46.407Z,99696.84
2022-12-15T07:17:20.754Z,99693.31
2022-12-15T07:19:48.431Z,99698.59
2022-12-15T07:22:16.178Z,99694.31
2022-12-15T07:24:43.916Z,99699.44
2022-12-15T07:27:11.646Z,99708.56
2022-12-15T07:29:39.289Z,99700.06
2022-12-15T07:32:08.607Z,99706.78
2022-12-15T07:34:36.750Z,99700.94
2022-12-15T07:37:04.618Z,99699.09
2022-12-15T07:39:32.848Z,99702.59
2022-12-15T07:42:01.399Z,99702.72
2022-12-15T07:44:29.963Z,99699.22
2022-12-15T07:46:57.761Z,99694.31
2022-12-15T07:49:27.142Z,99702.66
2022-12-15T07:51:58.433Z,99704.25
2022-12-15T07:54:26.184Z,99711.97
2022-12-15T07:56:54.102Z,99707.59
2022-12-15T07:59:21.793Z,99706.81
2022-12-15T08:01:49.791Z,99710.31
2022-12-15T08:04:18.633Z,99715.50
2022-12-15T08:06:47.715Z,99712.00
2022-12-15T08:09:15.410Z,99709.38
2022-12-15T08:11:43.113Z,99709.47
2022-12-15T08:14:16.910Z,99722.16
2022-12-15T08:16:46.023Z,99721.31
2022-12-15T08:19:15.539Z,99716.31
2022-12-15T08:22:03.815Z,99711.19
2022-12-15T08:24:31.567Z,99717.88
2022-12-15T08:26:59.949Z,99727.97
2022-12-15T08:32:15.493Z,99739.03
2022-12-15T08:34:43.487Z,99737.31
2022-12-15T08:37:12.571Z,99741.56
2022-12-15T08:39:40.565Z,99753.59
2022-12-15T08:42:08.261Z,99761.16
2022-12-15T08:44:36.104Z,99768.09
2022-12-15T08:47:03.948Z,99768.03
2022-12-15T08:49:31.636Z,99766.59
2022-12-15T08:51:59.897Z,99768.13
2022-12-15T08:54:29.089Z,99775.91
2022-12-15T08:56:56.814Z,99780.94
2022-12-15T08:59:25.209Z,99775.00
2022-12-15T09:01:54.370Z,99777.47
2022-12-15T09:04:22.130Z,99785.84
2022-12-15T09:06:50.904Z,99791.03
2022-12-15T09:09:18.908Z,99793.69
2022-12-15T09:11:48.554Z,99804.56
2022-12-15T09:14:16.600Z,99802.09
2022-12-15T09:16:44.442Z,99803.03
2022-12-15T09:19:12.344Z,99814.00
2022-12-15T09:21:42.938Z,99819.19
2022-12-15T09:24:20.614Z,99818.41
2022-12-15T09:26:54.103Z,99814.34
2022-12-15T09:29:22.204Z,99815.31
2022-12-15T09:31:49.992Z,99795.03
2022-12-15T09:34:17.854Z,99776.44
2022-12-15T09:36:45.562Z,99779.09
2022-12-15T09:39:14.432Z,99785.13
2022-12-15T09:41:44.088Z,99790.28
2022-12-15T09:44:15.528Z,99790.25
2022-12-15T09:46:54.138Z,99795.38
2022-12-15T09:49:37.977Z,99805.50
2022-12-15T09:52:11.220Z,99818.31
2022-12-15T09:54:41.593Z,99803.06
2022-12-15T09:57:17.669Z,99807.31
2022-12-15T10:00:04.728Z,99804.03
2022-12-15T10:03:03.536Z,99810.78
2022-12-15T10:06:07.225Z,99806.59
2022-12-15T10:08:31.350Z,99812.53
2022-12-15T10:11:01.490Z,99811.72
2022-12-15T10:13:39.115Z,99804.88
2022-12-15T10:16:19.435Z,99792.19
2022-12-15T10:19:01.705Z,99781.16
2022-12-15T10:21:31.823Z,99776.09
2022-12-15T10:24:09.987Z,99782.00
2022-12-15T10:26:38.450Z,99774.38
2022-12-15T10:29:26.332Z,99770.19
2022-12-15T10:32:00.588Z,99766.78
2022-12-15T10:34:30.221Z,99771.84
2022-12-15T10:36:59.198Z,99766.78
2022-12-15T10:39:39.264Z,99758.31
2022-12-15T10:42:21.085Z,99760.88
2022-12-15T10:44:51.158Z,99754.06
2022-12-15T10:47:22.698Z,99757.44
2022-12-15T10:49:51.304Z,99765.09
2022-12-15T10:52:32.097Z,99754.91
2022-12-15T10:54:59.901Z,99770.13
2022-12-15T10:57:31.721Z,99755.72
2022-12-15T11:00:27.315Z,99748.91
2022-12-15T11:02:56.614Z,99746.41
2022-12-15T11:05:24.611Z,99750.63
2022-12-15T11:07:54.838Z,99740.47
2022-12-15T11:10:24.725Z,99737.94
2022-12-15T11:12:59.388Z,99741.28
2022-12-15T11:15:43.184Z,99737.91
2022-12-15T11:18:21.711Z,99731.97
2022-12-15T11:20:54.113Z,99738.78
2022-12-15T11:23:29.693Z,99734.50
2022-12-15T11:28:54.394Z,99728.59
2022-12-15T11:31:27.646Z,99726.09
2022-12-15T11:33:57.116Z,99720.13
2022-12-15T11:36:40.979Z,99714.19
2022-12-15T11:39:21.918Z,99704.00
2022-12-15T11:41:58.692Z,99709.97
2022-12-15T11:44:31.273Z,99703.16
2022-12-15T11:47:11.087Z,99693.00
2022-12-15T11:50:03.691Z,99689.59
2022-12-15T11:52:47.861Z,99684.50
2022-12-15T11:55:29.629Z,99681.09
2022-12-15T11:58:32.487Z,99688.78
2022-12-15T12:01:10.915Z,99690.44
2022-12-15T12:03:44.662Z,99681.13
2022-12-15T12:06:20.597Z,99684.50
2022-12-15T12:09:02.734Z,99683.66
2022-12-15T12:11:35.735Z,99671.78
2022-12-15T12:14:16.847Z,99675.16
2022-12-15T12:16:53.904Z,99666.69
2022-12-15T12:19:25.987Z,99655.66
2022-12-15T12:21:59.724Z,99638.72
2022-12-15T12:24:31.127Z,99635.34
2022-12-15T12:27:02.745Z,99629.38
2022-12-15T12:29:34.685Z,99630.25
2022-12-15T12:32:08.676Z,99619.19
2022-12-15T12:34:51.180Z,99621.75
2022-12-15T12:37:28.806Z,99625.97
2022-12-15T12:40:03.236Z,99626.84
2022-12-15T12:42:39.687Z,99625.16
2022-12-15T12:45:12.303Z,99615.81
2022-12-15T12:47:45.131Z,99614.94
2022-12-15T12:50:19.697Z,99618.34
2022-12-15T12:52:53.444Z,99609.88
2022-12-15T12:55:29.509Z,99602.22
2022-12-15T12:57:58.062Z,99602.25
2022-12-15T13:00:29.010Z,99593.75
2022-12-15T13:03:19.143Z,99594.63
2022-12-15T13:05:50.552Z,99588.69
2022-12-15T13:08:50.945Z,99571.72
2022-12-15T13:11:57.869Z,99566.63
2022-12-15T13:17:43.164Z,99563.25
2022-12-15T13:20:27.042Z,99561.53
2022-12-15T13:22:57.384Z,99558.16
2022-12-15T13:25:40.592Z,99547.91
2022-12-15T13:28:24.380Z,99542.84
2022-12-15T13:31:27.478Z,99555.59
2022-12-15T13:34:01.896Z,99563.22
2022-12-15T13:36:54.845Z,99544.50
2022-12-15T13:39:59.118Z,99544.53
2022-12-15T13:45:50.256Z,99542.81
2022-12-15T13:48:38.599Z,99536.09
2022-12-15T13:51:33.212Z,99533.56
2022-12-15T13:54:05.251Z,99530.97
2022-12-15T13:57:02.402Z,99543.69
2022-12-15T13:59:43.897Z,99537.72
2022-12-15T14:02:25.551Z,99549.66
2022-12-15T14:05:16.466Z,99546.28
2022-12-15T14:07:52.670Z,99547.97
2022-12-15T14:10:26.183Z,99546.28
2022-12-15T14:12:56.969Z,99541.16
2022-12-15T14:15:29.653Z,99540.31
2022-12-15T14:17:58.978Z,99546.22
2022-12-15T14:20:29.305Z,99543.66
2022-12-15T14:22:57.125Z,99553.91
2022-12-15T14:25:27.896Z,99548.84
2022-12-15T14:27:55.931Z,99550.53
2022-12-15T14:30:29.219Z,99549.69
2022-12-15T14:33:00.202Z,99548.00
2022-12-15T14:35:32.568Z,99559.03
2022-12-15T14:38:03.890Z,99560.72
2022-12-15T14:40:32.305Z,99564.94
2022-12-15T14:43:00.649Z,99553.94
2022-12-15T14:45:32.271Z,99555.66
2022-12-15T14:48:39.396Z,99554.78
2022-12-15T14:50:53.258Z,99549.72
2022-12-15T14:53:22.940Z,99551.38
2022-12-15T14:55:51.481Z,99558.16
2022-12-15T14:58:33.319Z,99571.75
2022-12-15T15:01:07.216Z,99562.41
2022-12-15T15:03:10.904Z,99542.88
2022-12-15T15:03:11.089Z,99738.78
2022-12-15T15:03:11.249Z,99569.19
2022-12-15T15:03:38.160Z,99564.09
2022-12-15T15:06:16.884Z,99564.94
2022-12-15T15:08:48.064Z,99567.47
2022-12-15T15:11:29.350Z,99564.94
2022-12-15T15:14:00.464Z,99572.53
2022-12-15T15:16:30.177Z,99574.22
2022-12-15T15:19:01.875Z,99569.97
2022-12-15T15:21:31.654Z,99569.97
2022-12-15T15:24:00.802Z,99574.22
2022-12-15T15:26:29.786Z,99575.94
2022-12-15T15:28:58.181Z,99580.13
2022-12-15T15:31:41.468Z,99580.09
2022-12-15T15:34:11.438Z,99583.50
2022-12-15T15:36:39.969Z,99583.50
2022-12-15T15:39:15.031Z,99581.81
2022-12-15T15:41:42.928Z,99580.97
2022-12-15T15:44:13.895Z,99581.84
2022-12-15T15:46:49.331Z,99586.91
2022-12-15T15:49:20.332Z,99591.13
2022-12-15T15:51:48.345Z,99587.75
2022-12-15T15:54:18.827Z,99586.88
2022-12-15T15:56:46.546Z,99580.91
2022-12-15T15:59:16.321Z,99584.34
2022-12-15T16:01:46.476Z,99574.22
2022-12-15T16:04:14.729Z,99570.81
2022-12-15T16:06:47.231Z,99573.34
2022-12-15T16:09:16.753Z,99564.06
2022-12-15T16:11:45.900Z,99570.81
2022-12-15T16:14:14.167Z,99571.72
2022-12-15T16:16:42.630Z,99574.22
2022-12-15T16:19:11.953Z,99568.28
2022-12-15T16:21:41.881Z,99575.91
2022-12-15T16:24:12.230Z,99575.88
2022-12-15T16:26:47.174Z,99578.44
2022-12-15T16:29:17.097Z,99568.31
2022-12-15T16:31:45.928Z,99574.25
2022-12-15T16:34:16.477Z,99569.13
2022-12-15T16:36:45.192Z,99576.78
2022-12-15T16:39:25.599Z,99578.44
2022-12-15T16:41:54.810Z,99574.22
2022-12-15T16:44:23.532Z,99571.72
2022-12-15T16:46:51.372Z,99579.34
2022-12-15T16:49:20.991Z,99579.31
2022-12-15T16:51:51.630Z,99586.13
2022-12-15T16:54:22.626Z,99587.84
2022-12-15T16:56:52.000Z,99593.75
2022-12-15T16:59:37.369Z,99592.91
2022-12-15T17:02:24.375Z,99594.56
2022-12-15T17:04:55.199Z,99598.00
2022-12-15T17:07:23.043Z,99590.34
2022-12-15T17:09:51.503Z,99593.75
2022-12-15T17:12:20.085Z,99592.06
2022-12-15T17:14:48.034Z,99594.59
2022-12-15T17:17:17.581Z,99587.81
2022-12-15T17:20:11.659Z,99586.97
2022-12-15T17:22:35.997Z,99578.50
2022-12-15T17:25:03.879Z,99586.97
2022-12-15T17:27:31.857Z,99584.41
2022-12-15T17:30:01.068Z,99589.50
2022-12-15T17:32:28.756Z,99577.63
2022-12-15T17:34:56.630Z,99567.50
2022-12-15T17:37:26.180Z,99570.03
2022-12-15T17:39:58.291Z,99564.09
2022-12-15T17:42:26.172Z,99565.81
2022-12-15T17:44:54.052Z,99570.03
2022-12-15T17:47:24.057Z,99570.84
2022-12-15T17:49:51.699Z,99561.56
2022-12-15T17:52:27.072Z,99555.59
2022-12-15T17:54:56.107Z,99543.75
2022-12-15T17:57:25.448Z,99545.44
2022-12-15T17:59:53.168Z,99544.56
2022-12-15T18:02:20.968Z,99542.88
2022-12-15T18:04:48.757Z,99547.09
2022-12-15T18:07:19.116Z,99538.63
2022-12-15T18:09:48.015Z,99530.19
2022-12-15T18:12:19.187Z,99537.78
2022-12-15T18:14:48.263Z,99536.06
2022-12-15T18:17:16.043Z,99534.41
2022-12-15T18:19:45.572Z,99537.78
2022-12-15T18:22:15.197Z,99535.25
2022-12-15T18:24:43.136Z,99532.66
2022-12-15T18:27:23.171Z,99532.69
2022-12-15T18:29:52.672Z,99522.53
2022-12-15T18:32:22.214Z,99520.00
2022-12-15T18:34:50.938Z,99520.81
2022-12-15T18:37:20.676Z,99513.25
2022-12-15T18:39:48.642Z,99509.03
2022-12-15T18:42:17.956Z,99509.03
2022-12-15T18:44:48.027Z,99510.72
2022-12-15T18:47:19.783Z,99520.84
2022-12-15T18:49:47.857Z,99514.94
2022-12-15T18:52:19.905Z,99511.56
2022-12-15T18:54:48.321Z,99514.94
2022-12-15T18:57:27.411Z,99516.63
2022-12-15T18:59:58.302Z,99516.63
2022-12-15T19:02:27.631Z,99515.78
2022-12-15T19:04:55.923Z,99510.72
2022-12-15T19:07:23.692Z,99516.63
2022-12-15T19:09:51.626Z,99514.94
2022-12-15T19:12:19.715Z,99510.69
2022-12-15T19:14:49.177Z,99514.91
2022-12-15T19:17:37.090Z,99510.69
2022-12-15T19:20:25.984Z,99502.25
2022-12-15T19:22:54.033Z,99499.72
2022-12-15T19:25:26.101Z,99497.16
2022-12-15T19:27:58.551Z,99504.78
2022-12-15T19:30:28.236Z,99498.88
2022-12-15T19:32:55.905Z,99499.69
2022-12-15T19:35:25.702Z,99488.69
2022-12-15T19:37:55.442Z,99486.16
2022-12-15T19:40:27.408Z,99485.31
2022-12-15T19:42:55.841Z,99490.41
2022-12-15T19:45:26.083Z,99488.72
2022-12-15T19:47:54.188Z,99487.84
2022-12-15T19:50:25.543Z,99477.69
2022-12-15T19:52:57.201Z,99474.31
2022-12-15T19:55:27.727Z,99477.69
2022-12-15T19:57:55.734Z,99472.63
2022-12-15T20:00:25.012Z,99477.69
2022-12-15T20:02:54.930Z,99479.38
2022-12-15T20:05:25.560Z,99485.31
2022-12-15T20:07:54.557Z,99485.31
2022-12-15T20:10:31.296Z,99492.09
2022-12-15T20:12:59.858Z,99485.31
2022-12-15T20:15:27.594Z,99494.63
2022-12-15T20:17:56.724Z,99496.34
2022-12-15T20:20:29.980Z,99495.47
2022-12-15T20:23:02.487Z,99495.47
2022-12-15T20:25:34.387Z,99498.00
2022-12-15T20:28:02.658Z,99500.56
2022-12-15T20:30:35.080Z,99498.84
2022-12-15T20:33:05.188Z,99498.00
2022-12-15T20:35:37.790Z,99499.72
2022-12-15T20:38:22.205Z,99495.47
2022-12-15T20:40:49.897Z,99501.38
2022-12-15T20:43:20.476Z,99502.25
2022-12-15T20:45:54.717Z,99499.69
2022-12-15T20:48:26.565Z,99504.78
2022-12-15T20:50:55.662Z,99511.53
2022-12-15T20:53:25.614Z,99510.69
2022-12-15T20:55:55.177Z,99505.63
2022-12-15T20:58:28.282Z,99508.19
2022-12-15T21:01:00.944Z,99503.09
2022-12-15T21:03:31.175Z,99500.53
2022-12-15T21:06:01.087Z,99506.47
2022-12-15T21:08:30.798Z,99507.34
2022-12-15T21:11:03.424Z,99512.41
2022-12-15T21:13:33.875Z,99514.97
2022-12-15T21:16:02.144Z,99509.84
2022-12-15T21:19:10.849Z,99512.41
2022-12-15T21:21:24.893Z,99509.03
2022-12-15T21:23:52.584Z,99509.88
2022-12-15T21:26:24.066Z,99504.78
2022-12-15T21:28:55.377Z,99509.84
2022-12-15T21:31:23.919Z,99508.16
2022-12-15T21:33:51.661Z,99508.16
2022-12-15T21:36:22.417Z,99507.28
2022-12-15T21:38:52.784Z,99509.84
2022-12-15T21:41:23.970Z,99513.25
2022-12-15T21:43:51.824Z,99512.34
2022-12-15T21:46:27.773Z,99512.34
2022-12-15T21:49:13.412Z,99518.28
2022-12-15T21:51:44.507Z,99520.78
2022-12-15T21:54:18.286Z,99516.59
2022-12-15T21:56:46.547Z,99511.50
2022-12-15T21:59:15.335Z,99518.25
2022-12-15T22:01:43.663Z,99522.47
2022-12-15T22:04:18.988Z,99533.53
2022-12-15T22:09:36.920Z,99539.44
2022-12-15T22:12:04.822Z,99539.41
2022-12-15T22:14:36.005Z,99535.16
2022-12-15T22:17:15.172Z,99548.69
2022-12-15T22:19:43.471Z,99533.41
2022-12-15T22:22:12.539Z,99535.09
2022-12-15T22:24:41.061Z,99546.91
2022-12-15T22:27:18.686Z,99541.81
2022-12-15T22:29:46.544Z,99537.56
2022-12-15T22:32:15.683Z,99534.19
2022-12-15T22:34:43.418Z,99535.88
2022-12-15T22:37:12.457Z,99538.38
2022-12-15T22:39:40.681Z,99537.53
2022-12-15T22:42:09.163Z,99540.09
2022-12-15T22:44:38.842Z,99544.28
2022-12-15T22:47:07.590Z,99544.25
2022-12-15T22:49:38.447Z,99544.22
2022-12-15T22:52:17.181Z,99545.91
2022-12-15T22:54:46.286Z,99546.78
2022-12-15T22:57:21.133Z,99537.44
2022-12-15T22:59:51.916Z,99547.56
2022-12-15T23:02:19.710Z,99542.53
2022-12-15T23:04:47.957Z,99541.66
2022-12-15T23:07:16.879Z,99536.56
2022-12-15T23:09:44.932Z,99539.13
2022-12-15T23:12:11.593Z,99536.56
2022-12-15T23:14:56.723Z,99537.44
2022-12-15T23:17:24.954Z,99548.31
2022-12-15T23:19:52.676Z,99547.50
2022-12-15T23:22:21.782Z,99547.44
2022-12-15T23:24:49.789Z,99547.41
2022-12-15T23:27:17.857Z,99547.41
2022-12-15T23:29:45.813Z,99541.53
2022-12-15T23:32:13.556Z,99534.81
2022-12-15T23:34:42.654Z,99534.00
2022-12-15T23:37:10.942Z,99533.94
2022-12-15T23:39:42.446Z,99539.84
2022-12-15T23:42:11.064Z,99540.84
2022-12-15T23:44:39.225Z,99536.66
2022-12-15T23:47:09.067Z,99538.25
2022-12-15T23:49:37.363Z,99531.53
2022-12-15T23:52:05.720Z,99537.38
2022-12-15T23:54:33.413Z,99533.13
2022-12-15T23:57:02.784Z,99528.84
2022-12-15T23:59:31.023Z,99523.75
